createdAt,value
2017-02-13T00:00:01.798Z,2.04
2017-02-13T00:00:27.933Z,1.95
2017-02-13T00:00:54.107Z,2.02
2017-02-13T00:01:20.262Z,1.92
2017-02-13T00:01:46.441Z,1.95
2017-02-13T00:02:12.647Z,2.06
2017-02-13T00:02:38.813Z,2
2017-02-13T00:03:04.951Z,2.04
2017-02-13T00:03:31.048Z,1.94
2017-02-13T00:03:57.175Z,1.94
2017-02-13T00:04:23.322Z,1.92
2017-02-13T00:04:49.459Z,2
2017-02-13T00:05:15.680Z,1.95
2017-02-13T00:05:41.810Z,1.95
2017-02-13T00:06:07.930Z,1.97
2017-02-13T00:06:34.110Z,2
2017-02-13T00:07:00.219Z,1.99
2017-02-13T00:07:26.390Z,2.02
2017-02-13T00:07:52.504Z,2
2017-02-13T00:08:18.612Z,2
2017-02-13T00:08:44.768Z,1.97
2017-02-13T00:09:10.867Z,2
2017-02-13T00:09:36.976Z,1.99
2017-02-13T00:10:03.189Z,2
2017-02-13T00:10:29.317Z,1.88
2017-02-13T00:10:55.478Z,1.97
2017-02-13T00:11:21.664Z,1.95
2017-02-13T00:11:47.844Z,1.97
2017-02-13T00:12:13.951Z,1.94
2017-02-13T00:12:40.051Z,1.97
2017-02-13T00:13:06.169Z,1.97
2017-02-13T00:13:32.297Z,1.91
2017-02-13T00:13:58.421Z,1.94
2017-02-13T00:14:24.515Z,1.89
2017-02-13T00:14:50.641Z,1.88
2017-02-13T00:15:16.781Z,1.85
2017-02-13T00:15:42.938Z,1.88
2017-02-13T00:16:09.175Z,1.91
2017-02-13T00:16:35.280Z,1.85
2017-02-13T00:17:01.366Z,1.85
2017-02-13T00:17:27.481Z,1.88
2017-02-13T00:17:53.670Z,1.87
2017-02-13T00:18:19.812Z,1.87
2017-02-13T00:18:45.913Z,1.85
2017-02-13T00:19:12.000Z,1.85
2017-02-13T00:19:38.127Z,1.81
2017-02-13T00:20:04.259Z,1.87
2017-02-13T00:20:30.370Z,1.88
2017-02-13T00:20:56.512Z,1.81
2017-02-13T00:21:22.679Z,1.87
2017-02-13T00:21:48.768Z,1.81
2017-02-13T00:22:14.853Z,1.78
2017-02-13T00:22:41.048Z,1.84
2017-02-13T00:23:07.242Z,1.91
2017-02-13T00:23:33.699Z,1.85
2017-02-13T00:23:59.806Z,1.84
2017-02-13T00:24:25.944Z,1.81
2017-02-13T00:24:52.068Z,1.8
2017-02-13T00:25:18.159Z,1.78
2017-02-13T00:25:44.246Z,1.77
2017-02-13T00:26:10.356Z,1.8
2017-02-13T00:26:36.481Z,1.91
2017-02-13T00:27:02.585Z,1.74
2017-02-13T00:27:28.765Z,1.77
2017-02-13T00:27:54.885Z,1.77
2017-02-13T00:28:21.027Z,1.78
2017-02-13T00:28:47.143Z,1.85
2017-02-13T00:29:13.275Z,1.74
2017-02-13T00:29:39.406Z,1.84
2017-02-13T00:30:05.551Z,1.73
2017-02-13T00:30:31.679Z,1.77
2017-02-13T00:30:57.766Z,1.8
2017-02-13T00:31:23.878Z,1.77
2017-02-13T00:31:50.041Z,1.78
2017-02-13T00:32:16.160Z,1.74
2017-02-13T00:32:42.342Z,1.81
2017-02-13T00:33:08.525Z,1.84
2017-02-13T00:33:34.644Z,1.81
2017-02-13T00:34:00.752Z,1.77
2017-02-13T00:34:26.933Z,1.81
2017-02-13T00:34:53.056Z,1.74
2017-02-13T00:35:19.228Z,1.76
2017-02-13T00:35:45.341Z,1.77
2017-02-13T00:36:11.457Z,1.81
2017-02-13T00:36:37.562Z,1.78
2017-02-13T00:37:03.713Z,1.7
2017-02-13T00:37:29.797Z,1.71
2017-02-13T00:37:55.982Z,1.81
2017-02-13T00:38:22.109Z,1.8
2017-02-13T00:38:48.241Z,1.78
2017-02-13T00:39:14.372Z,1.81
2017-02-13T00:39:40.477Z,1.78
2017-02-13T00:40:06.618Z,1.8
2017-02-13T00:40:32.715Z,1.81
2017-02-13T00:40:58.858Z,1.78
2017-02-13T00:41:24.982Z,1.89
2017-02-13T00:41:51.113Z,1.85
2017-02-13T00:42:17.218Z,1.84
2017-02-13T00:42:43.329Z,1.8
2017-02-13T00:43:09.429Z,1.87
2017-02-13T00:43:35.584Z,1.77
2017-02-13T00:44:01.723Z,1.84
2017-02-13T00:44:27.852Z,1.87
2017-02-13T00:44:53.943Z,1.87
2017-02-13T00:45:20.108Z,1.78
2017-02-13T00:45:46.210Z,1.81
2017-02-13T00:46:12.326Z,1.8
2017-02-13T00:46:38.427Z,1.84
2017-02-13T00:47:04.540Z,1.84
2017-02-13T00:47:30.658Z,1.88
2017-02-13T00:47:56.787Z,1.81
2017-02-13T00:48:22.875Z,1.8
2017-02-13T00:48:49.012Z,1.76
2017-02-13T00:49:15.178Z,1.76
2017-02-13T00:49:41.323Z,1.66
2017-02-13T00:50:07.439Z,1.78
2017-02-13T00:50:33.600Z,1.73
2017-02-13T00:50:59.754Z,1.73
2017-02-13T00:51:25.867Z,1.8
2017-02-13T00:51:51.971Z,1.71
2017-02-13T00:52:18.066Z,1.81
2017-02-13T00:52:44.207Z,1.77
2017-02-13T00:53:10.359Z,1.77
2017-02-13T00:53:36.493Z,1.76
2017-02-13T00:54:02.622Z,1.8
2017-02-13T00:54:28.769Z,1.85
2017-02-13T00:54:54.930Z,1.8
2017-02-13T00:55:21.042Z,1.81
2017-02-13T00:55:47.201Z,1.76
2017-02-13T00:56:13.299Z,1.78
2017-02-13T00:56:39.441Z,1.77
2017-02-13T00:57:05.524Z,1.8
2017-02-13T00:57:31.653Z,1.81
2017-02-13T00:57:57.751Z,1.78
2017-02-13T00:58:23.877Z,1.74
2017-02-13T00:58:49.999Z,1.8
2017-02-13T00:59:16.135Z,1.84
2017-02-13T00:59:42.296Z,1.8
2017-02-13T01:00:08.415Z,1.84
2017-02-13T01:00:34.589Z,1.81
2017-02-13T01:01:00.770Z,1.74
2017-02-13T01:01:26.920Z,1.78
2017-02-13T01:01:53.005Z,1.77
2017-02-13T01:02:19.197Z,1.8
2017-02-13T01:02:45.318Z,1.77
2017-02-13T01:03:11.498Z,1.78
2017-02-13T01:03:37.615Z,1.76
2017-02-13T01:04:03.734Z,1.81
2017-02-13T01:04:29.861Z,1.8
2017-02-13T01:04:55.982Z,1.76
2017-02-13T01:05:22.074Z,1.76
2017-02-13T01:05:48.277Z,1.78
2017-02-13T01:06:14.430Z,1.87
2017-02-13T01:06:40.595Z,1.76
2017-02-13T01:07:06.746Z,1.8
2017-02-13T01:07:32.876Z,1.77
2017-02-13T01:07:59.064Z,1.77
2017-02-13T01:08:25.182Z,1.77
2017-02-13T01:08:51.277Z,1.77
2017-02-13T01:09:17.432Z,1.8
2017-02-13T01:09:43.590Z,1.76
2017-02-13T01:10:09.745Z,1.8
2017-02-13T01:10:35.906Z,1.81
2017-02-13T01:11:02.097Z,1.89
2017-02-13T01:11:28.203Z,1.8
2017-02-13T01:11:54.353Z,1.87
2017-02-13T01:12:20.509Z,1.78
2017-02-13T01:12:46.706Z,1.87
2017-02-13T01:13:12.870Z,1.87
2017-02-13T01:13:39.001Z,1.81
2017-02-13T01:14:05.195Z,1.84
2017-02-13T01:14:31.365Z,1.91
2017-02-13T01:14:57.555Z,1.89
2017-02-13T01:15:23.721Z,1.84
2017-02-13T01:15:49.858Z,1.84
2017-02-13T01:16:16.035Z,1.8
2017-02-13T01:16:42.161Z,1.89
2017-02-13T01:17:08.316Z,1.87
2017-02-13T01:17:34.465Z,1.74
2017-02-13T01:18:00.651Z,1.85
2017-02-13T01:18:26.808Z,1.84
2017-02-13T01:18:52.955Z,1.81
2017-02-13T01:19:19.064Z,1.8
2017-02-13T01:19:45.208Z,1.84
2017-02-13T01:20:11.365Z,1.77
2017-02-13T01:20:37.483Z,1.78
2017-02-13T01:21:03.581Z,1.84
2017-02-13T01:21:29.690Z,1.8
2017-02-13T01:21:55.816Z,1.87
2017-02-13T01:22:21.954Z,1.78
2017-02-13T01:22:48.055Z,1.87
2017-02-13T01:23:14.181Z,1.78
2017-02-13T01:23:40.349Z,1.76
2017-02-13T01:24:06.481Z,1.78
2017-02-13T01:24:32.593Z,1.84
2017-02-13T01:24:58.683Z,1.85
2017-02-13T01:25:24.809Z,1.8
2017-02-13T01:25:50.926Z,1.87
2017-02-13T01:26:17.052Z,1.8
2017-02-13T01:26:43.184Z,1.78
2017-02-13T01:27:09.303Z,1.78
2017-02-13T01:27:35.468Z,1.87
2017-02-13T01:28:01.618Z,1.78
2017-02-13T01:28:27.750Z,1.73
2017-02-13T01:28:53.888Z,1.87
2017-02-13T01:29:19.980Z,1.81
2017-02-13T01:29:46.066Z,1.8
2017-02-13T01:30:12.227Z,1.73
2017-02-13T01:30:38.347Z,1.76
2017-02-13T01:31:04.443Z,1.74
2017-02-13T01:31:30.529Z,1.78
2017-02-13T01:31:56.674Z,1.8
2017-02-13T01:32:22.803Z,1.81
2017-02-13T01:32:48.894Z,1.77
2017-02-13T01:33:14.973Z,1.78
2017-02-13T01:33:41.098Z,1.8
2017-02-13T01:34:07.252Z,1.78
2017-02-13T01:34:33.364Z,1.78
2017-02-13T01:34:59.520Z,1.76
2017-02-13T01:35:25.654Z,1.8
2017-02-13T01:35:51.758Z,1.81
2017-02-13T01:36:17.879Z,1.78
2017-02-13T01:36:43.989Z,1.78
2017-02-13T01:37:10.143Z,1.77
2017-02-13T01:37:36.321Z,1.84
2017-02-13T01:38:02.477Z,1.87
2017-02-13T01:38:28.605Z,1.85
2017-02-13T01:38:54.769Z,1.76
2017-02-13T01:39:20.877Z,1.77
2017-02-13T01:39:46.989Z,1.77
2017-02-13T01:40:13.095Z,1.76
2017-02-13T01:40:39.238Z,1.77
2017-02-13T01:41:05.384Z,1.78
2017-02-13T01:41:31.483Z,1.78
2017-02-13T01:41:57.574Z,1.78
2017-02-13T01:42:23.707Z,1.8
2017-02-13T01:42:49.862Z,1.84
2017-02-13T01:43:15.984Z,1.78
2017-02-13T01:43:42.115Z,1.81
2017-02-13T01:44:08.227Z,1.85
2017-02-13T01:44:34.370Z,1.85
2017-02-13T01:45:00.483Z,1.81
2017-02-13T01:45:26.595Z,1.81
2017-02-13T01:45:52.680Z,1.8
2017-02-13T01:46:18.812Z,1.8
2017-02-13T01:46:44.906Z,1.81
2017-02-13T01:47:11.073Z,1.73
2017-02-13T01:47:37.224Z,1.78
2017-02-13T01:48:03.337Z,1.8
2017-02-13T01:48:29.472Z,1.87
2017-02-13T01:48:55.591Z,1.78
2017-02-13T01:49:21.726Z,1.88
2017-02-13T01:49:47.865Z,1.8
2017-02-13T01:50:13.958Z,1.87
2017-02-13T01:50:40.093Z,1.85
2017-02-13T01:51:06.192Z,1.89
2017-02-13T01:51:32.346Z,1.81
2017-02-13T01:51:58.448Z,1.87
2017-02-13T01:52:24.552Z,1.78
2017-02-13T01:52:50.680Z,1.8
2017-02-13T01:53:16.796Z,1.8
2017-02-13T01:53:42.918Z,1.77
2017-02-13T01:54:09.005Z,1.85
2017-02-13T01:54:35.138Z,1.8
2017-02-13T01:55:01.317Z,1.8
2017-02-13T01:55:27.428Z,1.8
2017-02-13T01:55:53.578Z,1.84
2017-02-13T01:56:19.739Z,1.8
2017-02-13T01:56:45.820Z,1.85
2017-02-13T01:57:11.974Z,1.81
2017-02-13T01:57:38.107Z,1.8
2017-02-13T01:58:04.250Z,1.89
2017-02-13T01:58:30.368Z,1.88
2017-02-13T01:58:56.498Z,1.8
2017-02-13T01:59:22.703Z,1.76
2017-02-13T01:59:48.841Z,1.81
2017-02-13T02:00:14.953Z,1.85
2017-02-13T02:00:41.067Z,1.89
2017-02-13T02:01:07.177Z,1.78
2017-02-13T02:01:33.308Z,1.84
2017-02-13T02:01:59.492Z,1.87
2017-02-13T02:02:25.576Z,1.8
2017-02-13T02:02:51.730Z,1.78
2017-02-13T02:03:17.858Z,1.78
2017-02-13T02:03:43.963Z,1.8
2017-02-13T02:04:10.089Z,1.78
2017-02-13T02:04:36.177Z,1.78
2017-02-13T02:05:02.308Z,1.84
2017-02-13T02:05:28.403Z,1.76
2017-02-13T02:05:54.491Z,1.81
2017-02-13T02:06:20.619Z,1.84
2017-02-13T02:06:46.779Z,1.77
2017-02-13T02:07:12.890Z,1.77
2017-02-13T02:07:39.028Z,1.78
2017-02-13T02:08:05.219Z,1.74
2017-02-13T02:08:31.323Z,1.8
2017-02-13T02:08:57.447Z,1.81
2017-02-13T02:09:23.584Z,1.8
2017-02-13T02:09:49.703Z,1.76
2017-02-13T02:10:15.890Z,1.78
2017-02-13T02:10:41.999Z,1.81
2017-02-13T02:11:08.119Z,1.87
2017-02-13T02:11:34.249Z,1.8
2017-02-13T02:12:00.392Z,1.81
2017-02-13T02:12:26.537Z,1.77
2017-02-13T02:12:52.747Z,1.84
2017-02-13T02:13:18.861Z,1.78
2017-02-13T02:13:44.944Z,1.85
2017-02-13T02:14:11.112Z,1.78
2017-02-13T02:14:37.255Z,1.74
2017-02-13T02:15:03.367Z,1.84
2017-02-13T02:15:29.500Z,1.78
2017-02-13T02:15:55.673Z,1.84
2017-02-13T02:16:21.802Z,1.78
2017-02-13T02:16:47.996Z,1.84
2017-02-13T02:17:14.163Z,1.85
2017-02-13T02:17:40.324Z,1.77
2017-02-13T02:18:06.447Z,1.76
2017-02-13T02:18:32.556Z,1.74
2017-02-13T02:18:58.704Z,1.76
2017-02-13T02:19:24.903Z,1.8
2017-02-13T02:19:50.989Z,1.78
2017-02-13T02:20:17.130Z,1.84
2017-02-13T02:20:43.272Z,1.78
2017-02-13T02:21:09.437Z,1.84
2017-02-13T02:21:35.575Z,1.78
2017-02-13T02:22:01.689Z,1.81
2017-02-13T02:22:27.796Z,1.8
2017-02-13T02:22:53.946Z,1.81
2017-02-13T02:23:20.080Z,1.71
2017-02-13T02:23:46.208Z,1.77
2017-02-13T02:24:12.368Z,1.77
2017-02-13T02:24:38.475Z,1.78
2017-02-13T02:25:04.630Z,1.78
2017-02-13T02:25:30.784Z,1.89
2017-02-13T02:25:56.958Z,1.81
2017-02-13T02:26:23.168Z,1.88
2017-02-13T02:26:49.609Z,1.78
2017-02-13T02:27:16.029Z,1.8
2017-02-13T02:27:42.749Z,1.81
2017-02-13T02:28:09.251Z,1.78
2017-02-13T02:28:35.722Z,1.77
2017-02-13T02:29:02.189Z,1.76
2017-02-13T02:29:28.334Z,1.78
2017-02-13T02:29:54.694Z,1.85
2017-02-13T02:30:21.048Z,1.77
2017-02-13T02:30:47.356Z,1.78
2017-02-13T02:31:13.719Z,1.8
2017-02-13T02:31:40.131Z,1.77
2017-02-13T02:32:06.431Z,1.78
2017-02-13T02:32:32.840Z,1.78
2017-02-13T02:32:59.270Z,1.73
2017-02-13T02:33:25.628Z,1.8
2017-02-13T02:33:52.002Z,1.78
2017-02-13T02:34:18.351Z,1.77
2017-02-13T02:34:44.388Z,1.78
2017-02-13T02:35:10.513Z,1.74
2017-02-13T02:35:36.602Z,1.78
2017-02-13T02:36:02.739Z,1.78
2017-02-13T02:36:28.844Z,1.76
2017-02-13T02:36:54.993Z,1.76
2017-02-13T02:37:21.158Z,1.74
2017-02-13T02:37:47.287Z,1.78
2017-02-13T02:38:13.420Z,1.81
2017-02-13T02:38:39.554Z,1.74
2017-02-13T02:39:05.710Z,1.76
2017-02-13T02:39:31.815Z,1.71
2017-02-13T02:39:57.942Z,1.73
2017-02-13T02:40:24.065Z,1.78
2017-02-13T02:40:50.178Z,1.76
2017-02-13T02:41:16.323Z,1.77
2017-02-13T02:41:42.543Z,1.76
2017-02-13T02:42:08.650Z,1.67
2017-02-13T02:42:34.751Z,1.74
2017-02-13T02:43:00.914Z,1.73
2017-02-13T02:43:27.029Z,1.78
2017-02-13T02:43:53.145Z,1.74
2017-02-13T02:44:19.282Z,1.81
2017-02-13T02:44:45.393Z,1.8
2017-02-13T02:45:11.483Z,1.77
2017-02-13T02:45:37.665Z,1.73
2017-02-13T02:46:03.791Z,1.76
2017-02-13T02:46:29.905Z,1.78
2017-02-13T02:46:56.065Z,1.78
2017-02-13T02:47:22.212Z,1.73
2017-02-13T02:47:48.298Z,1.77
2017-02-13T02:48:14.471Z,1.68
2017-02-13T02:48:40.606Z,1.71
2017-02-13T02:49:06.716Z,1.78
2017-02-13T02:49:32.806Z,1.71
2017-02-13T02:49:58.889Z,1.76
2017-02-13T02:50:25.018Z,1.73
2017-02-13T02:50:51.144Z,1.67
2017-02-13T02:51:17.254Z,1.67
2017-02-13T02:51:43.405Z,1.81
2017-02-13T02:52:09.505Z,1.68
2017-02-13T02:52:35.614Z,1.76
2017-02-13T02:53:01.733Z,1.67
2017-02-13T02:53:27.892Z,1.71
2017-02-13T02:53:54.007Z,1.74
2017-02-13T02:54:20.149Z,1.68
2017-02-13T02:54:46.240Z,1.68
2017-02-13T02:55:12.420Z,1.68
2017-02-13T02:55:38.587Z,1.76
2017-02-13T02:56:04.692Z,1.78
2017-02-13T02:56:30.845Z,1.81
2017-02-13T02:56:57.004Z,1.77
2017-02-13T02:57:23.092Z,1.77
2017-02-13T02:57:49.237Z,1.74
2017-02-13T02:58:15.396Z,1.7
2017-02-13T02:58:41.510Z,1.74
2017-02-13T02:59:07.646Z,1.71
2017-02-13T02:59:33.753Z,1.71
2017-02-13T02:59:59.957Z,1.81
2017-02-13T03:00:26.113Z,1.63
2017-02-13T03:00:52.198Z,1.7
2017-02-13T03:01:18.337Z,1.68
2017-02-13T03:01:44.478Z,1.59
2017-02-13T03:02:10.588Z,1.59
2017-02-13T03:02:36.703Z,1.6
2017-02-13T03:03:02.836Z,1.62
2017-02-13T03:03:28.958Z,1.62
2017-02-13T03:03:55.090Z,1.59
2017-02-13T03:04:21.223Z,1.58
2017-02-13T03:04:47.400Z,1.6
2017-02-13T03:05:13.539Z,1.58
2017-02-13T03:05:39.693Z,1.63
2017-02-13T03:06:05.805Z,1.59
2017-02-13T03:06:31.931Z,1.68
2017-02-13T03:06:58.055Z,1.62
2017-02-13T03:07:24.142Z,1.67
2017-02-13T03:07:50.305Z,1.68
2017-02-13T03:08:16.400Z,1.71
2017-02-13T03:08:42.539Z,1.67
2017-02-13T03:09:08.680Z,1.68
2017-02-13T03:09:34.833Z,1.6
2017-02-13T03:10:00.969Z,1.62
2017-02-13T03:10:27.088Z,1.53
2017-02-13T03:10:53.275Z,1.59
2017-02-13T03:11:19.410Z,1.55
2017-02-13T03:11:45.540Z,1.59
2017-02-13T03:12:11.675Z,1.55
2017-02-13T03:12:37.777Z,1.59
2017-02-13T03:13:03.907Z,1.59
2017-02-13T03:13:30.064Z,1.58
2017-02-13T03:13:56.183Z,1.59
2017-02-13T03:14:22.338Z,1.56
2017-02-13T03:14:48.478Z,1.59
2017-02-13T03:15:14.597Z,1.56
2017-02-13T03:15:40.729Z,1.56
2017-02-13T03:16:06.861Z,1.56
2017-02-13T03:16:32.941Z,1.59
2017-02-13T03:16:59.171Z,1.62
2017-02-13T03:17:25.314Z,1.59
2017-02-13T03:17:51.414Z,1.59
2017-02-13T03:18:17.501Z,1.62
2017-02-13T03:18:43.690Z,1.56
2017-02-13T03:19:09.824Z,1.59
2017-02-13T03:19:35.939Z,1.55
2017-02-13T03:20:02.074Z,1.58
2017-02-13T03:20:28.206Z,1.58
2017-02-13T03:20:54.354Z,1.55
2017-02-13T03:21:20.460Z,1.58
2017-02-13T03:21:46.639Z,1.56
2017-02-13T03:22:12.731Z,1.58
2017-02-13T03:22:38.826Z,1.59
2017-02-13T03:23:04.913Z,1.58
2017-02-13T03:23:31.049Z,1.52
2017-02-13T03:23:57.206Z,1.59
2017-02-13T03:24:23.355Z,1.55
2017-02-13T03:24:49.465Z,1.59
2017-02-13T03:25:15.568Z,1.53
2017-02-13T03:25:41.693Z,1.62
2017-02-13T03:26:07.829Z,1.59
2017-02-13T03:26:33.982Z,1.49
2017-02-13T03:27:00.084Z,1.52
2017-02-13T03:27:26.213Z,1.52
2017-02-13T03:27:52.325Z,1.52
2017-02-13T03:28:18.453Z,1.5
2017-02-13T03:28:44.594Z,1.49
2017-02-13T03:29:10.734Z,1.59
2017-02-13T03:29:36.866Z,1.58
2017-02-13T03:30:02.976Z,1.52
2017-02-13T03:30:29.061Z,1.5
2017-02-13T03:30:55.220Z,1.52
2017-02-13T03:31:21.312Z,1.55
2017-02-13T03:31:47.402Z,1.45
2017-02-13T03:32:13.543Z,1.53
2017-02-13T03:32:39.640Z,1.49
2017-02-13T03:33:05.724Z,1.5
2017-02-13T03:33:31.852Z,1.53
2017-02-13T03:33:57.958Z,1.45
2017-02-13T03:34:24.125Z,1.48
2017-02-13T03:34:50.274Z,1.49
2017-02-13T03:35:16.418Z,1.49
2017-02-13T03:35:42.542Z,1.45
2017-02-13T03:36:08.643Z,1.44
2017-02-13T03:36:34.756Z,1.45
2017-02-13T03:37:00.914Z,1.5
2017-02-13T03:37:27.047Z,1.45
2017-02-13T03:37:53.157Z,1.52
2017-02-13T03:38:19.279Z,1.42
2017-02-13T03:38:45.411Z,1.53
2017-02-13T03:39:11.496Z,1.48
2017-02-13T03:39:37.683Z,1.55
2017-02-13T03:40:03.841Z,1.49
2017-02-13T03:40:29.995Z,1.48
2017-02-13T03:40:56.134Z,1.44
2017-02-13T03:41:22.212Z,1.49
2017-02-13T03:41:48.335Z,1.53
2017-02-13T03:42:14.488Z,1.53
2017-02-13T03:42:40.625Z,1.44
2017-02-13T03:43:06.720Z,1.48
2017-02-13T03:43:32.849Z,1.52
2017-02-13T03:43:58.962Z,1.48
2017-02-13T03:44:25.048Z,1.5
2017-02-13T03:44:51.142Z,1.49
2017-02-13T03:45:17.321Z,1.44
2017-02-13T03:45:43.455Z,1.45
2017-02-13T03:46:09.572Z,1.58
2017-02-13T03:46:35.663Z,1.44
2017-02-13T03:47:01.826Z,1.58
2017-02-13T03:47:27.942Z,1.59
2017-02-13T03:47:54.110Z,1.62
2017-02-13T03:48:20.245Z,1.55
2017-02-13T03:48:46.367Z,1.52
2017-02-13T03:49:12.481Z,1.49
2017-02-13T03:49:38.613Z,1.49
2017-02-13T03:50:04.741Z,1.49
2017-02-13T03:50:30.887Z,1.5
2017-02-13T03:50:57.032Z,1.55
2017-02-13T03:51:23.120Z,1.5
2017-02-13T03:51:49.229Z,1.45
2017-02-13T03:52:15.376Z,1.58
2017-02-13T03:52:41.504Z,1.48
2017-02-13T03:53:07.684Z,1.49
2017-02-13T03:53:33.806Z,1.55
2017-02-13T03:53:59.937Z,1.53
2017-02-13T03:54:26.060Z,1.55
2017-02-13T03:54:52.189Z,1.49
2017-02-13T03:55:18.293Z,1.52
2017-02-13T03:55:44.440Z,1.49
2017-02-13T03:56:10.559Z,1.52
2017-02-13T03:56:36.715Z,1.52
2017-02-13T03:57:05.928Z,1.5
2017-02-13T03:57:32.054Z,1.45
2017-02-13T03:57:58.169Z,1.44
2017-02-13T03:58:24.325Z,1.49
2017-02-13T03:58:50.456Z,1.52
2017-02-13T03:59:16.601Z,1.6
2017-02-13T03:59:42.709Z,1.45
2017-02-13T04:00:08.923Z,1.48
2017-02-13T04:00:35.074Z,1.48
2017-02-13T04:01:01.155Z,1.5
2017-02-13T04:01:27.273Z,1.48
2017-02-13T04:01:53.465Z,1.55
2017-02-13T04:02:19.571Z,1.45
2017-02-13T04:02:45.749Z,1.48
2017-02-13T04:03:11.934Z,1.52
2017-02-13T04:03:38.038Z,1.49
2017-02-13T04:04:04.217Z,1.5
2017-02-13T04:04:30.330Z,1.48
2017-02-13T04:04:56.487Z,1.49
2017-02-13T04:05:22.646Z,1.49
2017-02-13T04:05:48.752Z,1.53
2017-02-13T04:06:14.912Z,1.55
2017-02-13T04:06:41.079Z,1.56
2017-02-13T04:07:07.215Z,1.66
2017-02-13T04:07:33.371Z,1.52
2017-02-13T04:07:59.458Z,1.59
2017-02-13T04:08:25.609Z,1.63
2017-02-13T04:08:51.741Z,1.59
2017-02-13T04:09:17.826Z,1.58
2017-02-13T04:09:43.970Z,1.58
2017-02-13T04:10:10.127Z,1.62
2017-02-13T04:10:36.220Z,1.49
2017-02-13T04:11:02.366Z,1.53
2017-02-13T04:11:28.490Z,1.53
2017-02-13T04:11:54.598Z,1.49
2017-02-13T04:12:20.729Z,1.56
2017-02-13T04:12:46.918Z,1.52
2017-02-13T04:13:13.087Z,1.45
2017-02-13T04:13:39.207Z,1.5
2017-02-13T04:14:05.361Z,1.49
2017-02-13T04:14:31.517Z,1.59
2017-02-13T04:14:57.605Z,1.53
2017-02-13T04:15:23.733Z,1.6
2017-02-13T04:15:49.857Z,1.5
2017-02-13T04:16:15.942Z,1.53
2017-02-13T04:16:42.064Z,1.55
2017-02-13T04:17:08.164Z,1.52
2017-02-13T04:17:34.283Z,1.48
2017-02-13T04:18:00.374Z,1.59
2017-02-13T04:18:26.500Z,1.49
2017-02-13T04:18:52.649Z,1.5
2017-02-13T04:19:18.780Z,1.55
2017-02-13T04:19:44.870Z,1.52
2017-02-13T04:20:11.011Z,1.49
2017-02-13T04:20:37.164Z,1.49
2017-02-13T04:21:03.301Z,1.56
2017-02-13T04:21:29.473Z,1.45
2017-02-13T04:21:55.627Z,1.48
2017-02-13T04:22:21.744Z,1.56
2017-02-13T04:22:47.924Z,1.45
2017-02-13T04:23:14.060Z,1.49
2017-02-13T04:23:40.212Z,1.55
2017-02-13T04:24:06.386Z,1.59
2017-02-13T04:24:32.477Z,1.56
2017-02-13T04:24:58.641Z,1.55
2017-02-13T04:25:24.743Z,1.6
2017-02-13T04:25:50.911Z,1.59
2017-02-13T04:26:16.999Z,1.56
2017-02-13T04:26:43.123Z,1.58
2017-02-13T04:27:09.228Z,1.55
2017-02-13T04:27:35.313Z,1.53
2017-02-13T04:28:01.470Z,1.52
2017-02-13T04:28:27.599Z,1.49
2017-02-13T04:28:53.728Z,1.52
2017-02-13T04:29:19.858Z,1.56
2017-02-13T04:29:45.996Z,1.5
2017-02-13T04:30:12.156Z,1.55
2017-02-13T04:30:38.249Z,1.49
2017-02-13T04:31:04.362Z,1.49
2017-02-13T04:31:30.538Z,1.55
2017-02-13T04:31:56.692Z,1.58
2017-02-13T04:32:22.778Z,1.56
2017-02-13T04:32:48.904Z,1.42
2017-02-13T04:33:15.059Z,1.48
2017-02-13T04:33:41.169Z,1.42
2017-02-13T04:34:07.289Z,1.55
2017-02-13T04:34:33.481Z,1.5
2017-02-13T04:34:59.581Z,1.53
2017-02-13T04:35:25.709Z,1.52
2017-02-13T04:35:51.889Z,1.5
2017-02-13T04:36:18.037Z,1.48
2017-02-13T04:36:44.165Z,1.42
2017-02-13T04:37:10.275Z,1.52
2017-02-13T04:37:36.430Z,1.45
2017-02-13T04:38:02.617Z,1.48
2017-02-13T04:38:28.703Z,1.5
2017-02-13T04:38:54.848Z,1.45
2017-02-13T04:39:21.029Z,1.53
2017-02-13T04:39:47.122Z,1.5
2017-02-13T04:40:13.232Z,1.58
2017-02-13T04:40:39.335Z,1.49
2017-02-13T04:41:05.430Z,1.49
2017-02-13T04:41:31.620Z,1.52
2017-02-13T04:41:57.762Z,1.58
2017-02-13T04:42:23.883Z,1.52
2017-02-13T04:42:50.008Z,1.53
2017-02-13T04:43:16.116Z,1.59
2017-02-13T04:43:42.259Z,1.58
2017-02-13T04:44:08.384Z,1.58
2017-02-13T04:44:34.507Z,1.52
2017-02-13T04:45:00.640Z,1.5
2017-02-13T04:45:26.764Z,1.59
2017-02-13T04:45:52.916Z,1.52
2017-02-13T04:46:19.046Z,1.48
2017-02-13T04:46:45.150Z,1.5
2017-02-13T04:47:11.260Z,1.53
2017-02-13T04:47:37.365Z,1.55
2017-02-13T04:48:03.503Z,1.59
2017-02-13T04:48:29.619Z,1.59
2017-02-13T04:48:55.801Z,1.58
2017-02-13T04:49:21.925Z,1.62
2017-02-13T04:49:48.042Z,1.59
2017-02-13T04:50:14.161Z,1.58
2017-02-13T04:50:40.346Z,1.56
2017-02-13T04:51:06.431Z,1.53
2017-02-13T04:51:32.596Z,1.59
2017-02-13T04:51:58.740Z,1.56
2017-02-13T04:52:24.871Z,1.58
2017-02-13T04:52:51.028Z,1.55
2017-02-13T04:53:17.164Z,1.59
2017-02-13T04:53:43.294Z,1.59
2017-02-13T04:54:09.423Z,1.55
2017-02-13T04:54:35.539Z,1.59
2017-02-13T04:55:01.664Z,1.55
2017-02-13T04:55:27.789Z,1.62
2017-02-13T04:55:53.901Z,1.6
2017-02-13T04:56:20.019Z,1.58
2017-02-13T04:56:46.142Z,1.6
2017-02-13T04:57:12.255Z,1.59
2017-02-13T04:57:38.388Z,1.59
2017-02-13T04:58:04.549Z,1.6
2017-02-13T04:58:30.667Z,1.59
2017-02-13T04:58:56.774Z,1.55
2017-02-13T04:59:22.896Z,1.59
2017-02-13T04:59:49.051Z,1.59
2017-02-13T05:00:15.185Z,1.67
2017-02-13T05:00:41.304Z,1.62
2017-02-13T05:01:07.433Z,1.59
2017-02-13T05:01:33.543Z,1.53
2017-02-13T05:01:59.638Z,1.63
2017-02-13T05:02:25.763Z,1.56
2017-02-13T05:02:51.911Z,1.62
2017-02-13T05:03:18.016Z,1.59
2017-02-13T05:03:44.146Z,1.58
2017-02-13T05:04:10.267Z,1.56
2017-02-13T05:04:36.453Z,1.58
2017-02-13T05:05:02.607Z,1.55
2017-02-13T05:05:28.710Z,1.63
2017-02-13T05:05:54.868Z,1.59
2017-02-13T05:06:21.038Z,1.62
2017-02-13T05:06:47.155Z,1.58
2017-02-13T05:07:13.314Z,1.58
2017-02-13T05:07:39.454Z,1.56
2017-02-13T05:08:05.543Z,1.49
2017-02-13T05:08:31.640Z,1.52
2017-02-13T05:08:57.736Z,1.55
2017-02-13T05:09:23.898Z,1.48
2017-02-13T05:09:50.006Z,1.52
2017-02-13T05:10:16.098Z,1.49
2017-02-13T05:10:42.224Z,1.59
2017-02-13T05:11:08.335Z,1.5
2017-02-13T05:11:34.463Z,1.55
2017-02-13T05:12:00.597Z,1.63
2017-02-13T05:12:26.718Z,1.53
2017-02-13T05:12:52.804Z,1.48
2017-02-13T05:13:18.906Z,1.49
2017-02-13T05:13:45.033Z,1.5
2017-02-13T05:14:11.152Z,1.62
2017-02-13T05:14:37.264Z,1.58
2017-02-13T05:15:03.347Z,1.59
2017-02-13T05:15:29.507Z,1.56
2017-02-13T05:15:55.599Z,1.56
2017-02-13T05:16:21.759Z,1.59
2017-02-13T05:16:47.887Z,1.59
2017-02-13T05:17:14.017Z,1.56
2017-02-13T05:17:40.122Z,1.58
2017-02-13T05:18:06.246Z,1.68
2017-02-13T05:18:32.377Z,1.52
2017-02-13T05:18:58.458Z,1.58
2017-02-13T05:19:24.581Z,1.58
2017-02-13T05:19:50.723Z,1.59
2017-02-13T05:20:16.878Z,1.62
2017-02-13T05:20:43.031Z,1.59
2017-02-13T05:21:09.186Z,1.56
2017-02-13T05:21:35.318Z,1.53
2017-02-13T05:22:01.448Z,1.49
2017-02-13T05:22:27.584Z,1.49
2017-02-13T05:22:53.703Z,1.49
2017-02-13T05:23:19.832Z,1.48
2017-02-13T05:23:45.975Z,1.52
2017-02-13T05:24:12.123Z,1.53
2017-02-13T05:24:38.271Z,1.49
2017-02-13T05:25:04.385Z,1.55
2017-02-13T05:25:30.516Z,1.45
2017-02-13T05:25:56.623Z,1.53
2017-02-13T05:26:22.773Z,1.49
2017-02-13T05:26:48.903Z,1.49
2017-02-13T05:27:15.073Z,1.59
2017-02-13T05:27:41.237Z,1.49
2017-02-13T05:28:07.372Z,1.49
2017-02-13T05:28:33.481Z,1.48
2017-02-13T05:28:59.566Z,1.45
2017-02-13T05:29:25.734Z,1.55
2017-02-13T05:29:51.858Z,1.56
2017-02-13T05:30:17.993Z,1.55
2017-02-13T05:30:44.117Z,1.48
2017-02-13T05:31:10.227Z,1.52
2017-02-13T05:31:36.359Z,1.53
2017-02-13T05:32:02.502Z,1.52
2017-02-13T05:32:28.608Z,1.45
2017-02-13T05:32:54.773Z,1.55
2017-02-13T05:33:20.890Z,1.5
2017-02-13T05:33:47.004Z,1.53
2017-02-13T05:34:13.193Z,1.49
2017-02-13T05:34:39.349Z,1.53
2017-02-13T05:35:05.458Z,1.48
2017-02-13T05:35:31.554Z,1.49
2017-02-13T05:35:57.681Z,1.45
2017-02-13T05:36:23.799Z,1.44
2017-02-13T05:36:49.944Z,1.52
2017-02-13T05:37:16.052Z,1.59
2017-02-13T05:37:42.214Z,1.53
2017-02-13T05:38:08.316Z,1.5
2017-02-13T05:38:34.403Z,1.48
2017-02-13T05:39:00.547Z,1.48
2017-02-13T05:39:26.684Z,1.56
2017-02-13T05:39:52.787Z,1.58
2017-02-13T05:40:18.959Z,1.5
2017-02-13T05:40:45.059Z,1.48
2017-02-13T05:41:11.234Z,1.49
2017-02-13T05:41:37.349Z,1.5
2017-02-13T05:42:03.489Z,1.55
2017-02-13T05:42:29.579Z,1.5
2017-02-13T05:42:55.713Z,1.5
2017-02-13T05:43:21.817Z,1.52
2017-02-13T05:43:47.909Z,1.52
2017-02-13T05:44:14.022Z,1.48
2017-02-13T05:44:40.151Z,1.5
2017-02-13T05:45:06.276Z,1.59
2017-02-13T05:45:32.385Z,1.56
2017-02-13T05:45:58.482Z,1.49
2017-02-13T05:46:24.696Z,1.55
2017-02-13T05:46:50.833Z,1.55
2017-02-13T05:47:16.958Z,1.49
2017-02-13T05:47:43.093Z,1.55
2017-02-13T05:48:09.198Z,1.5
2017-02-13T05:48:35.345Z,1.52
2017-02-13T05:49:01.490Z,1.48
2017-02-13T05:49:27.611Z,1.48